Time;durP1;ratioP1;P1;durP2;ratioP2;P2;SDS_P1;SDS_P2;PMS_P1;PMS_P2;Temp;Humidity;BMP_temperature;BMP_pressure;BME280_temperature;BME280_humidity;BME280_pressure;Samples;Min_cycle;Max_cycle;Signal;HPM_P1;HPM_P2
2022/05/17 00:02:57;;;;;;;12.00;5.90;;;;;;;11.22;53.41;100485.67;130433;1268;108558;-76
2022/05/17 00:06:05;;;;;;;20.90;9.20;;;;;;;11.12;53.76;100482.64;130484;1268;108850;-73
2022/05/17 00:09:11;;;;;;;20.20;10.70;;;;;;;11.04;53.68;100486.25;130358;1267;107732;-75
2022/05/17 00:12:17;;;;;;;20.80;11.00;;;;;;;10.97;54.06;100485.64;130546;1266;108766;-74
2022/05/17 00:15:23;;;;;;;14.10;7.70;;;;;;;10.91;54.00;100480.14;130406;1267;108763;-74
2022/05/17 00:18:30;;;;;;;25.20;12.30;;;;;;;10.86;53.90;100479.73;130422;1267;108841;-75
2022/05/17 00:21:37;;;;;;;19.60;10.90;;;;;;;10.85;53.93;100475.03;130472;1266;108783;-74
2022/05/17 00:24:42;;;;;;;25.50;11.30;;;;;;;10.84;54.18;100469.14;130489;1268;108658;-75
2022/05/17 00:27:48;;;;;;;25.40;12.10;;;;;;;10.78;54.39;100468.65;130535;1268;108861;-75
2022/05/17 00:30:54;;;;;;;23.00;11.70;;;;;;;10.73;54.29;100466.10;130485;1268;107639;-74
2022/05/17 00:33:59;;;;;;;24.00;11.40;;;;;;;10.67;54.36;100471.88;130381;1267;108774;-75
2022/05/17 00:37:05;;;;;;;20.40;11.00;;;;;;;10.59;54.74;100476.53;130423;1266;107566;-77
2022/05/17 00:40:14;;;;;;;21.40;10.50;;;;;;;10.49;54.73;100474.99;130395;1267;107499;-77
2022/05/17 00:44:42;;;;;;;17.00;9.20;;;;;;;10.38;54.70;100469.26;130502;1267;108759;-77
2022/05/17 00:47:02;;;;;;;17.90;9.90;;;;;;;10.32;55.16;100464.90;130420;1267;109075;-76
2022/05/17 00:50:13;;;;;;;15.70;8.80;;;;;;;10.32;55.16;100461.65;130361;1265;108726;-79
2022/05/17 00:53:22;;;;;;;16.90;8.70;;;;;;;10.31;55.26;100463.70;130486;1267;108662;-77
2022/05/17 00:56:28;;;;;;;14.80;7.30;;;;;;;10.32;55.17;100461.52;130493;1267;108768;-76
2022/05/17 00:59:35;;;;;;;13.60;7.20;;;;;;;10.33;55.33;100458.19;130515;1266;109254;-76
2022/05/17 01:02:41;;;;;;;12.00;7.10;;;;;;;10.36;55.43;100453.63;130478;1268;108842;-77
2022/05/17 01:05:51;;;;;;;11.20;6.30;;;;;;;10.38;55.33;100454.86;130362;1267;108887;-78
2022/05/17 01:08:56;;;;;;;10.50;6.20;;;;;;;10.38;55.58;100451.45;130446;1267;108670;-76
2022/05/17 01:12:02;;;;;;;11.70;6.10;;;;;;;10.37;55.35;100447.31;130531;1267;107746;-80
2022/05/17 01:15:11;;;;;;;9.00;5.90;;;;;;;10.37;55.41;100445.39;130502;1267;108671;-76
2022/05/17 01:18:17;;;;;;;8.90;5.20;;;;;;;10.35;55.36;100449.48;130516;1268;108829;-78
2022/05/17 01:21:22;;;;;;;9.40;5.50;;;;;;;10.35;55.62;100452.85;130397;1268;108526;-78
2022/05/17 01:24:28;;;;;;;9.20;5.90;;;;;;;10.36;55.65;100452.23;130369;1268;108751;-77
2022/05/17 01:27:39;;;;;;;10.40;6.00;;;;;;;10.36;55.82;100448.95;130401;1266;108502;-77
2022/05/17 01:30:44;;;;;;;10.60;5.80;;;;;;;10.37;56.18;100450.50;130507;1266;108993;-80
2022/05/17 01:33:50;;;;;;;10.80;5.90;;;;;;;10.39;55.92;100451.02;130393;1268;108685;-76
2022/05/17 01:36:55;;;;;;;10.30;6.30;;;;;;;10.38;56.22;100451.64;130444;1268;108927;-76
2022/05/17 01:40:01;;;;;;;12.20;6.50;;;;;;;10.31;56.18;100450.54;130505;1268;107604;-77
2022/05/17 01:43:07;;;;;;;9.60;6.20;;;;;;;10.19;56.70;100448.75;130520;1268;108643;-77
2022/05/17 01:46:13;;;;;;;11.80;6.30;;;;;;;10.17;56.57;100452.38;130508;1268;107266;-76
2022/05/17 01:49:19;;;;;;;12.10;6.60;;;;;;;10.17;56.70;100449.17;130579;1268;108633;-75
2022/05/17 01:52:24;;;;;;;11.80;6.60;;;;;;;10.15;56.66;100449.20;130502;1268;108788;-73
2022/05/17 01:55:30;;;;;;;9.20;5.70;;;;;;;10.14;56.91;100448.20;130402;1268;108695;-76
2022/05/17 01:58:37;;;;;;;11.40;6.30;;;;;;;10.09;56.89;100446.54;130377;1268;108637;-75
2022/05/17 02:01:42;;;;;;;9.10;5.90;;;;;;;10.12;56.81;100449.49;130353;1268;108758;-77
2022/05/17 02:04:47;;;;;;;10.10;6.10;;;;;;;10.18;56.92;100445.71;130557;1266;108719;-75
2022/05/17 02:07:53;;;;;;;10.40;5.80;;;;;;;10.22;57.06;100449.38;130432;1268;108126;-76
2022/05/17 02:10:59;;;;;;;9.40;5.20;;;;;;;10.25;56.94;100450.55;130511;1268;107592;-75
2022/05/17 02:14:06;;;;;;;7.50;4.90;;;;;;;10.31;57.16;100451.59;130468;1268;108894;-75
2022/05/17 02:17:12;;;;;;;8.60;4.80;;;;;;;10.40;57.01;100457.38;130485;1268;108767;-75
2022/05/17 02:20:18;;;;;;;11.90;5.80;;;;;;;10.49;57.20;100463.05;130435;1267;107053;-77
2022/05/17 02:23:23;;;;;;;9.30;5.70;;;;;;;10.59;57.27;100462.48;130504;1268;108687;-74
2022/05/17 02:26:29;;;;;;;8.00;5.00;;;;;;;10.69;57.09;100461.90;130415;1268;108635;-76
2022/05/17 02:29:34;;;;;;;9.60;5.50;;;;;;;10.77;57.03;100472.87;130388;1267;108835;-75
2022/05/17 02:32:40;;;;;;;9.00;5.40;;;;;;;10.83;56.80;100477.52;130462;1267;109081;-76
2022/05/17 02:35:45;;;;;;;8.60;5.60;;;;;;;10.92;56.82;100477.95;130437;1267;108717;-73
2022/05/17 02:38:51;;;;;;;14.70;6.00;;;;;;;10.96;56.63;100471.30;130413;1268;108657;-76
2022/05/17 02:41:56;;;;;;;10.40;6.20;;;;;;;10.98;56.88;100475.75;130385;1268;108675;-75
2022/05/17 02:45:02;;;;;;;7.80;5.90;;;;;;;10.99;57.21;100477.79;130507;1266;108760;-75
2022/05/17 02:48:09;;;;;;;9.50;6.00;;;;;;;10.99;57.03;100482.73;130557;1267;108714;-76
2022/05/17 02:51:17;;;;;;;8.70;5.00;;;;;;;11.01;56.90;100484.88;130546;1268;108855;-72
2022/05/17 02:54:23;;;;;;;9.50;5.40;;;;;;;11.06;56.85;100487.67;130506;1268;108857;-73
2022/05/17 02:57:28;;;;;;;8.40;4.70;;;;;;;11.09;56.43;100490.85;130565;1267;108794;-83
2022/05/17 03:00:34;;;;;;;8.40;4.80;;;;;;;11.14;56.66;100490.39;130550;1268;107062;-75
2022/05/17 03:03:41;;;;;;;7.80;4.30;;;;;;;11.19;56.68;100490.41;130716;1266;108660;-76
2022/05/17 03:06:47;;;;;;;6.90;4.30;;;;;;;11.23;56.39;100495.01;130513;1268;108832;-76
2022/05/17 03:09:52;;;;;;;7.70;4.20;;;;;;;11.28;56.31;100499.84;130439;1267;109854;-78
2022/05/17 03:12:58;;;;;;;7.00;3.60;;;;;;;11.35;56.38;100500.30;130395;1268;108673;-76
2022/05/17 03:16:05;;;;;;;7.00;3.70;;;;;;;11.40;56.25;100500.44;130404;1268;108975;-77
2022/05/17 03:19:10;;;;;;;7.40;3.60;;;;;;;11.46;55.79;100504.14;130434;1268;108884;-76
2022/05/17 03:22:15;;;;;;;4.90;3.20;;;;;;;11.51;55.51;100510.27;130418;1268;107666;-76
2022/05/17 03:25:23;;;;;;;5.90;3.30;;;;;;;11.55;55.33;100509.10;130419;1268;108625;-75
2022/05/17 03:28:28;;;;;;;5.00;3.40;;;;;;;11.60;55.10;100508.86;130369;1267;107727;-77
2022/05/17 03:31:34;;;;;;;6.40;3.30;;;;;;;11.64;55.39;100509.14;130413;1267;108815;-77
2022/05/17 03:34:40;;;;;;;7.30;3.60;;;;;;;11.69;55.08;100514.36;130387;1267;108620;-77
2022/05/17 03:37:45;;;;;;;6.90;3.40;;;;;;;11.76;55.27;100516.59;130371;1267;108736;-78
2022/05/17 03:40:52;;;;;;;5.40;3.40;;;;;;;11.87;55.16;100517.05;130410;1265;108976;-77
2022/05/17 03:43:59;;;;;;;5.20;3.40;;;;;;;11.99;55.38;100517.38;130378;1266;108767;-77
2022/05/17 03:47:07;;;;;;;8.60;3.40;;;;;;;12.10;55.14;100521.41;130051;1266;385264;-77
2022/05/17 03:50:17;;;;;;;7.00;3.50;;;;;;;12.23;55.12;100517.33;130406;1267;108741;-77
2022/05/17 03:53:23;;;;;;;7.90;3.50;;;;;;;12.39;54.97;100524.01;130479;1267;107719;-77
2022/05/17 03:56:28;;;;;;;5.00;3.20;;;;;;;12.57;54.77;100526.88;130591;1267;108752;-76
2022/05/17 03:59:34;;;;;;;6.60;3.20;;;;;;;12.71;54.58;100532.15;130492;1267;107302;-77
2022/05/17 04:02:40;;;;;;;6.30;3.60;;;;;;;12.80;54.67;100531.80;130578;1267;109775;-77
2022/05/17 04:05:46;;;;;;;6.00;4.00;;;;;;;12.84;54.59;100532.19;130459;1267;108763;-77
2022/05/17 04:08:52;;;;;;;5.60;3.70;;;;;;;12.87;54.62;100534.74;130394;1267;108821;-77
2022/05/17 04:11:58;;;;;;;5.70;3.40;;;;;;;12.89;54.60;100536.02;130232;1268;108796;-77
2022/05/17 04:15:04;;;;;;;5.90;3.40;;;;;;;12.87;54.36;100535.52;130334;1267;108797;-76
2022/05/17 04:18:11;;;;;;;5.90;3.30;;;;;;;12.87;54.44;100533.84;130373;1267;108846;-77
2022/05/17 04:21:16;;;;;;;5.20;3.10;;;;;;;12.91;54.42;100530.60;130370;1267;108523;-78
2022/05/17 04:24:22;;;;;;;5.20;3.00;;;;;;;12.94;54.52;100528.61;130411;1267;108779;-77
2022/05/17 04:27:28;;;;;;;6.00;3.10;;;;;;;13.00;54.18;100532.95;130419;1267;108657;-77
2022/05/17 04:30:33;;;;;;;5.10;3.20;;;;;;;13.04;54.10;100533.02;130312;1267;108602;-76
2022/05/17 04:33:39;;;;;;;4.50;2.90;;;;;;;13.08;54.11;100534.02;130317;1267;108742;-75
2022/05/17 04:36:46;;;;;;;5.70;3.10;;;;;;;13.13;53.92;100529.55;130333;1267;107867;-77
2022/05/17 04:39:51;;;;;;;7.20;3.50;;;;;;;13.17;53.66;100524.77;130298;1267;108119;-75
2022/05/17 04:42:57;;;;;;;7.60;3.70;;;;;;;13.20;53.67;100525.08;130291;1267;108781;-76
2022/05/17 04:46:03;;;;;;;4.50;3.30;;;;;;;13.25;53.64;100521.40;130331;1267;108722;-76
2022/05/17 04:49:08;;;;;;;6.20;3.50;;;;;;;13.36;53.61;100518.88;130318;1266;108750;-76
2022/05/17 04:52:14;;;;;;;5.70;3.40;;;;;;;13.47;53.35;100523.83;130187;1268;108553;-75
2022/05/17 04:55:21;;;;;;;4.10;2.80;;;;;;;13.56;53.17;100527.15;130314;1267;108667;-73
2022/05/17 04:58:26;;;;;;;4.60;2.90;;;;;;;13.66;52.61;100532.49;130335;1267;108953;-73
2022/05/17 05:01:32;;;;;;;3.40;2.40;;;;;;;13.75;52.39;100529.48;130315;1267;108097;-75
2022/05/17 05:04:39;;;;;;;4.00;2.30;;;;;;;13.86;52.29;100530.13;130308;1267;108708;-74
2022/05/17 05:07:44;;;;;;;4.70;2.60;;;;;;;13.93;52.12;100531.73;130322;1267;108832;-74
2022/05/17 05:10:50;;;;;;;4.50;2.30;;;;;;;13.99;52.03;100535.31;130322;1267;108819;-75
2022/05/17 05:13:56;;;;;;;4.50;2.30;;;;;;;14.06;52.06;100540.23;130304;1267;108673;-75
2022/05/17 05:17:01;;;;;;;4.10;2.30;;;;;;;14.15;51.59;100544.48;130315;1267;109590;-75
2022/05/17 05:20:11;;;;;;;3.70;2.20;;;;;;;14.22;51.52;100546.20;130254;1267;108747;-75
2022/05/17 05:23:17;;;;;;;3.10;2.00;;;;;;;14.34;51.07;100552.20;130322;1267;108733;-75
2022/05/17 05:26:23;;;;;;;4.30;3.10;;;;;;;14.49;51.07;100550.58;130279;1267;109058;-75
2022/05/17 05:29:28;;;;;;;4.20;2.10;;;;;;;14.69;50.57;100552.23;130316;1267;108826;-75
2022/05/17 05:32:34;;;;;;;3.90;2.30;;;;;;;14.86;50.57;100548.23;130397;1267;108945;-75
2022/05/17 05:35:39;;;;;;;5.20;1.90;;;;;;;15.02;50.29;100549.16;130335;1267;108817;-75
2022/05/17 05:38:45;;;;;;;2.90;2.00;;;;;;;15.13;50.12;100545.74;130298;1267;107672;-76
2022/05/17 05:41:52;;;;;;;4.60;2.10;;;;;;;15.25;49.89;100549.50;130308;1267;109004;-75
2022/05/17 05:44:58;;;;;;;3.60;1.60;;;;;;;15.39;49.53;100545.06;130312;1267;108654;-75
2022/05/17 05:48:03;;;;;;;3.40;1.30;;;;;;;15.47;48.72;100543.43;130290;1266;107820;-75
2022/05/17 05:51:09;;;;;;;2.20;1.50;;;;;;;15.52;47.81;100550.35;130284;1267;109493;-75
2022/05/17 05:54:16;;;;;;;4.40;1.20;;;;;;;15.54;47.50;100547.98;130279;1267;108741;-75
2022/05/17 05:57:22;;;;;;;1.80;1.20;;;;;;;15.56;47.44;100548.89;130264;1267;108875;-75
2022/05/17 06:00:28;;;;;;;2.00;1.20;;;;;;;15.61;47.22;100553.75;130256;1267;108979;-75
2022/05/17 06:03:34;;;;;;;3.10;1.20;;;;;;;15.71;47.23;100554.94;130281;1267;108711;-76
2022/05/17 06:06:42;;;;;;;3.30;1.30;;;;;;;15.80;47.09;100556.30;130259;1267;108866;-76
2022/05/17 06:09:47;;;;;;;4.60;1.50;;;;;;;15.85;46.84;100553.05;130394;1267;108664;-76
2022/05/17 06:12:53;;;;;;;3.80;1.50;;;;;;;15.84;45.79;100555.14;130302;1267;108918;-76
2022/05/17 06:15:58;;;;;;;3.10;1.30;;;;;;;15.78;46.52;100555.86;130308;1267;108808;-75
2022/05/17 06:19:04;;;;;;;2.80;1.20;;;;;;;15.80;46.51;100553.75;130293;1268;107618;-76
2022/05/17 06:22:10;;;;;;;4.50;1.20;;;;;;;15.86;46.06;100554.14;130315;1267;108775;-75
2022/05/17 06:25:15;;;;;;;2.60;1.10;;;;;;;15.90;45.37;100558.64;130300;1267;108947;-76
2022/05/17 06:28:21;;;;;;;2.70;1.10;;;;;;;15.89;45.22;100559.04;130311;1267;109107;-75
2022/05/17 06:31:26;;;;;;;2.50;1.10;;;;;;;15.84;44.71;100557.29;130339;1267;108530;-76
2022/05/17 06:34:32;;;;;;;2.10;1.00;;;;;;;15.87;44.78;100557.60;130377;1267;108674;-75
2022/05/17 06:37:38;;;;;;;1.80;0.80;;;;;;;15.94;44.67;100557.54;130280;1267;108757;-76
2022/05/17 06:40:43;;;;;;;1.80;1.00;;;;;;;16.05;44.57;100557.63;130313;1267;108741;-76
2022/05/17 06:43:49;;;;;;;1.60;0.70;;;;;;;16.13;44.52;100553.05;130292;1267;108910;-76
2022/05/17 06:46:55;;;;;;;3.40;1.10;;;;;;;16.20;44.34;100549.11;130296;1267;108846;-75
2022/05/17 06:50:01;;;;;;;2.20;1.20;;;;;;;16.25;43.90;100549.94;130337;1267;107622;-77
2022/05/17 06:53:07;;;;;;;2.20;1.20;;;;;;;16.32;44.05;100550.30;130268;1267;108768;-76
2022/05/17 06:56:13;;;;;;;6.20;1.10;;;;;;;16.43;43.65;100553.98;130287;1267;108633;-76
2022/05/17 06:59:19;;;;;;;7.50;1.20;;;;;;;16.57;43.87;100550.71;130262;1267;108729;-76
2022/05/17 07:02:25;;;;;;;1.40;0.90;;;;;;;16.73;43.57;100552.73;130309;1267;108904;-76
2022/05/17 07:05:32;;;;;;;1.60;1.10;;;;;;;16.84;43.32;100550.07;130298;1267;108927;-77
2022/05/17 07:08:38;;;;;;;1.70;0.80;;;;;;;16.91;43.31;100552.38;130306;1267;108829;-76
2022/05/17 07:15:07;;;;;;;4.00;1.20;;;;;;;17.08;43.30;100548.05;130306;1267;109176;-76
2022/05/17 07:18:15;;;;;;;2.30;1.00;;;;;;;17.16;42.97;100546.09;130314;1267;108955;-76
2022/05/17 07:21:20;;;;;;;5.90;1.20;;;;;;;17.19;42.88;100550.64;130294;1267;108777;-76
2022/05/17 07:24:26;;;;;;;2.30;1.10;;;;;;;17.20;42.58;100548.63;130325;1266;108578;-76
2022/05/17 07:27:32;;;;;;;2.10;1.00;;;;;;;17.21;42.75;100550.75;130336;1267;108049;-76
2022/05/17 07:30:38;;;;;;;1.60;1.00;;;;;;;17.23;42.39;100552.23;130358;1267;109048;-75
2022/05/17 07:33:44;;;;;;;3.80;1.10;;;;;;;17.22;42.31;100555.29;130307;1266;108872;-76
2022/05/17 07:36:49;;;;;;;3.80;0.90;;;;;;;17.23;42.10;100556.14;130324;1267;108640;-76
2022/05/17 07:39:54;;;;;;;2.30;1.00;;;;;;;17.24;40.90;100554.20;130313;1267;108842;-76
2022/05/17 07:43:00;;;;;;;3.70;0.90;;;;;;;17.19;40.81;100554.88;130301;1267;108692;-76
2022/05/17 07:46:05;;;;;;;1.50;0.70;;;;;;;17.18;39.83;100552.39;130273;1267;109444;-76
2022/05/17 07:49:11;;;;;;;5.70;1.30;;;;;;;17.15;39.53;100550.89;130320;1267;108751;-76
2022/05/17 07:52:16;;;;;;;3.70;0.70;;;;;;;17.18;39.56;100558.27;130310;1267;108760;-76
2022/05/17 07:55:22;;;;;;;2.70;1.20;;;;;;;17.23;39.99;100555.64;130284;1265;108664;-76
2022/05/17 07:58:27;;;;;;;3.50;0.80;;;;;;;17.31;39.24;100552.91;130344;1267;108605;-76
2022/05/17 08:01:34;;;;;;;3.10;0.80;;;;;;;17.34;38.57;100549.09;130266;1267;108903;-76
2022/05/17 08:04:41;;;;;;;3.20;0.90;;;;;;;17.41;39.20;100551.27;130280;1267;108847;-76
2022/05/17 08:07:46;;;;;;;2.20;1.40;;;;;;;17.54;38.93;100554.36;130266;1267;108889;-76
2022/05/17 08:10:52;;;;;;;1.90;0.90;;;;;;;17.53;38.07;100552.14;130361;1267;108797;-75
2022/05/17 08:13:57;;;;;;;4.20;1.20;;;;;;;17.62;38.57;100554.77;130322;1267;108797;-76
2022/05/17 08:17:03;;;;;;;3.30;0.90;;;;;;;17.70;37.29;100559.39;130300;1267;108952;-76
2022/05/17 08:20:10;;;;;;;2.30;0.80;;;;;;;17.70;37.63;100559.17;130293;1267;108626;-76
2022/05/17 08:23:16;;;;;;;2.80;1.30;;;;;;;17.59;36.23;100568.69;130088;1267;109215;-76
2022/05/17 08:29:44;;;;;;;3.00;1.10;;;;;;;17.62;37.41;100567.23;130287;1267;108621;-75
2022/05/17 08:36:15;;;;;;;1.40;0.70;;;;;;;17.77;36.63;100572.94;130349;1267;108917;-76
2022/05/17 08:39:21;;;;;;;1.20;0.70;;;;;;;17.83;36.40;100571.95;130288;1267;109081;-76
2022/05/17 08:42:37;;;;;;;4.80;0.90;;;;;;;17.92;36.24;100573.44;130301;1267;108612;-75
2022/05/17 08:45:54;;;;;;;3.40;1.00;;;;;;;17.96;35.30;100572.66;130293;1266;108891;-75
2022/05/17 08:49:10;;;;;;;1.90;0.80;;;;;;;18.02;36.18;100575.17;130269;1267;108757;-75
2022/05/17 08:52:18;;;;;;;4.40;0.80;;;;;;;18.16;36.03;100573.49;130299;1267;108666;-74
2022/05/17 08:55:28;;;;;;;5.10;1.00;;;;;;;18.21;36.00;100574.00;130433;1267;109045;-75
2022/05/17 08:58:35;;;;;;;2.50;1.00;;;;;;;18.22;36.33;100572.50;130367;1267;109032;-75
2022/05/17 09:02:00;;;;;;;1.80;0.70;;;;;;;18.20;36.08;100573.81;130284;1267;108314;-75
2022/05/17 09:05:12;;;;;;;3.20;1.20;;;;;;;18.18;35.98;100575.01;130317;1266;108564;-78
2022/05/17 09:08:26;;;;;;;2.40;0.70;;;;;;;18.19;35.71;100575.42;130337;1267;108881;-74
2022/05/17 09:11:38;;;;;;;2.70;0.70;;;;;;;18.02;34.87;100578.78;130262;1267;108789;-74
2022/05/17 09:14:50;;;;;;;2.70;0.80;;;;;;;17.88;35.58;100585.29;130359;1267;108739;-75
2022/05/17 09:17:57;;;;;;;1.90;0.60;;;;;;;17.97;35.46;100583.05;130317;1266;108819;-77
2022/05/17 09:21:03;;;;;;;1.10;0.70;;;;;;;18.09;34.64;100584.41;130472;1266;108734;-74
2022/05/17 09:24:12;;;;;;;2.20;0.70;;;;;;;18.09;34.31;100578.00;130606;1267;108945;-74
2022/05/17 09:27:28;;;;;;;1.70;0.80;;;;;;;18.19;34.59;100579.24;130476;1267;108688;-75
2022/05/17 09:30:38;;;;;;;2.50;0.80;;;;;;;18.35;34.17;100580.70;130429;1267;108857;-74
2022/05/17 09:33:45;;;;;;;1.20;0.50;;;;;;;18.51;33.59;100577.83;130460;1267;108707;-75
2022/05/17 09:36:53;;;;;;;1.70;0.70;;;;;;;18.60;33.95;100580.22;130412;1266;108872;-74
2022/05/17 09:39:58;;;;;;;2.40;0.60;;;;;;;18.65;34.31;100578.48;130502;1266;108740;-76
2022/05/17 09:43:07;;;;;;;1.30;0.80;;;;;;;18.67;34.35;100579.89;130618;1266;109183;-77
2022/05/17 09:46:14;;;;;;;1.20;0.50;;;;;;;18.68;34.25;100583.69;130541;1267;108859;-76
2022/05/17 09:53:02;;;;;;;2.20;1.10;;;;;;;18.57;34.02;100583.19;130174;1268;109527;-77
2022/05/17 09:56:09;;;;;;;1.30;0.60;;;;;;;18.60;33.70;100573.61;130271;1268;108882;-77
2022/05/17 09:59:25;;;;;;;1.70;0.70;;;;;;;18.60;34.16;100575.86;130333;1267;108660;-77
2022/05/17 10:02:40;;;;;;;3.00;0.50;;;;;;;18.54;33.78;100578.64;130335;1267;108816;-77
2022/05/17 10:05:49;;;;;;;2.80;0.50;;;;;;;18.52;33.74;100577.46;130396;1265;108590;-76
2022/05/17 10:09:02;;;;;;;1.80;0.70;;;;;;;18.64;34.10;100576.71;130405;1267;108745;-75
2022/05/17 10:12:14;;;;;;;2.80;0.70;;;;;;;18.78;33.86;100576.52;130398;1267;108755;-77
2022/05/17 10:15:21;;;;;;;2.50;0.60;;;;;;;18.89;33.42;100569.86;130434;1266;108897;-77
2022/05/17 10:18:38;;;;;;;2.80;0.60;;;;;;;18.94;32.74;100573.88;130480;1267;107711;-76
2022/05/17 10:21:48;;;;;;;2.90;0.60;;;;;;;18.93;31.91;100569.38;130532;1266;108857;-78
2022/05/17 10:24:59;;;;;;;0.50;0.40;;;;;;;18.84;32.69;100565.09;130447;1267;108690;-75
2022/05/17 10:28:11;;;;;;;2.60;0.70;;;;;;;18.99;32.58;100566.38;130421;1265;108830;-75
2022/05/17 10:31:24;;;;;;;2.20;0.50;;;;;;;19.07;32.45;100566.41;130442;1266;108788;-75
2022/05/17 10:34:46;;;;;;;1.10;0.50;;;;;;;19.15;32.28;100561.17;130455;1267;108844;-76
2022/05/17 10:37:56;;;;;;;1.00;0.50;;;;;;;19.28;32.44;100553.27;130335;1267;108795;-75
2022/05/17 10:41:08;;;;;;;2.70;0.60;;;;;;;19.36;30.60;100560.32;130357;1267;108793;-76
2022/05/17 10:44:19;;;;;;;1.50;0.70;;;;;;;19.38;31.28;100549.54;130335;1267;108741;-77
2022/05/17 10:47:37;;;;;;;1.00;0.40;;;;;;;19.52;32.03;100552.67;130389;1266;107679;-76
2022/05/17 10:50:51;;;;;;;1.60;0.40;;;;;;;19.78;31.85;100549.90;130391;1266;108770;-76
2022/05/17 10:54:08;;;;;;;2.80;0.60;;;;;;;20.07;32.44;100548.34;130482;1267;108630;-76
2022/05/17 10:57:23;;;;;;;1.10;0.40;;;;;;;20.36;31.89;100549.16;130379;1267;108777;-76
2022/05/17 11:00:35;;;;;;;1.20;0.80;;;;;;;20.62;32.19;100544.36;130505;1266;108580;-75
2022/05/17 11:03:48;;;;;;;;;;;;;;;20.96;32.10;100539.31;130536;1267;108696;-76
2022/05/17 11:07:05;;;;;;;1.60;0.60;;;;;;;21.22;31.65;100537.70;130526;1266;106935;-75
2022/05/17 11:10:24;;;;;;;3.60;0.90;;;;;;;21.36;31.59;100536.33;130567;1267;108819;-77
2022/05/17 11:13:47;;;;;;;0.70;0.40;;;;;;;21.39;30.24;100536.28;130509;1266;108752;-76
2022/05/17 11:17:02;;;;;;;2.90;0.40;;;;;;;21.35;31.33;100533.13;130476;1267;109844;-76
2022/05/17 11:20:15;;;;;;;1.80;0.50;;;;;;;21.43;30.74;100536.56;130440;1266;108696;-77
2022/05/17 11:23:37;;;;;;;0.90;0.50;;;;;;;21.30;30.74;100534.37;130319;1267;108758;-75
2022/05/17 11:27:08;;;;;;;0.70;0.50;;;;;;;21.22;30.47;100532.73;130354;1266;108733;-76
2022/05/17 11:30:21;;;;;;;2.70;0.60;;;;;;;21.04;29.66;100528.44;130394;1265;108701;-75
2022/05/17 11:33:39;;;;;;;1.70;0.50;;;;;;;20.91;30.20;100537.75;130334;1267;108689;-76
2022/05/17 11:36:45;;;;;;;0.60;0.30;;;;;;;20.77;30.23;100544.64;130377;1266;108932;-76
2022/05/17 11:39:50;;;;;;;2.20;0.50;;;;;;;20.65;29.66;100541.13;130560;1266;108177;-76
2022/05/17 11:46:47;;;;;;;1.70;0.70;;;;;;;20.40;29.89;100546.90;130407;1267;109009;-75
2022/05/17 11:49:52;;;;;;;4.00;0.60;;;;;;;20.28;29.16;100551.20;130570;1267;108823;-76
2022/05/17 11:53:35;;;;;;;3.20;0.50;;;;;;;20.23;30.09;100555.05;130546;1267;106984;-75
2022/05/17 11:56:42;;;;;;;3.20;0.50;;;;;;;20.18;29.87;100552.88;130592;1266;108797;-76
2022/05/17 11:59:55;;;;;;;0.40;0.30;;;;;;;20.13;30.11;100555.30;130403;1266;108834;-76
2022/05/17 12:03:04;;;;;;;1.00;0.50;;;;;;;20.05;30.08;100554.22;130358;1265;108765;-77
2022/05/17 12:06:27;;;;;;;2.00;0.40;;;;;;;19.95;29.68;100554.22;130445;1267;108756;-76
2022/05/17 12:09:38;;;;;;;1.00;0.50;;;;;;;19.84;30.07;100552.84;130388;1267;108808;-76
2022/05/17 12:13:00;;;;;;;0.80;0.50;;;;;;;19.68;29.61;100551.86;130365;1267;108864;-76
2022/05/17 12:16:13;;;;;;;0.90;0.50;;;;;;;19.57;29.14;100555.30;130879;1267;108879;-78
2022/05/17 12:19:26;;;;;;;2.20;0.50;;;;;;;19.44;29.38;100551.69;130512;1267;108776;-76
2022/05/17 12:22:40;;;;;;;0.90;0.50;;;;;;;19.37;29.71;100555.28;130517;1266;107591;-76
2022/05/17 12:25:54;;;;;;;0.80;0.40;;;;;;;19.43;29.98;100554.27;130462;1267;108838;-76
2022/05/17 12:30:52;;;;;;;0.70;0.40;;;;;;;19.52;29.97;100547.91;130367;1266;108881;-76
2022/05/17 12:32:25;;;;;;;0.80;0.40;;;;;;;19.63;29.76;100547.43;130355;1267;108684;-75
2022/05/17 12:35:32;;;;;;;1.20;0.40;;;;;;;19.51;29.70;100546.48;130343;1267;108964;-75
2022/05/17 12:45:31;;;;;;;1.20;0.70;;;;;;;19.39;30.27;100545.55;130352;1267;108725;-75
2022/05/17 12:48:39;;;;;;;0.90;0.60;;;;;;;19.36;30.47;100552.56;130338;1266;108985;-77
2022/05/17 12:51:55;;;;;;;1.10;0.50;;;;;;;19.32;29.93;100548.86;130375;1267;108825;-75
2022/05/17 12:55:04;;;;;;;1.10;0.50;;;;;;;19.25;29.82;100544.09;130296;1267;108784;-75
2022/05/17 12:58:17;;;;;;;1.80;0.50;;;;;;;19.25;30.55;100539.84;130322;1267;108940;-76
2022/05/17 13:01:28;;;;;;;0.90;0.50;;;;;;;19.35;30.58;100533.76;130319;1266;108729;-76
2022/05/17 13:04:37;;;;;;;1.40;0.60;;;;;;;19.45;30.39;100538.23;130385;1267;108065;-75
2022/05/17 13:07:43;;;;;;;0.50;0.40;;;;;;;19.47;30.15;100535.61;130340;1267;108862;-76
2022/05/17 13:11:01;;;;;;;2.20;0.30;;;;;;;19.47;30.02;100534.29;130343;1267;108868;-76
2022/05/17 13:14:15;;;;;;;1.20;0.40;;;;;;;19.57;29.96;100526.61;130364;1266;108768;-75
2022/05/17 13:17:24;;;;;;;1.90;0.50;;;;;;;19.67;29.85;100520.66;130394;1266;108644;-75
2022/05/17 13:20:32;;;;;;;2.90;0.40;;;;;;;19.68;29.92;100521.33;130425;1266;108706;-75
2022/05/17 13:23:40;;;;;;;0.80;0.50;;;;;;;19.64;29.74;100519.42;130385;1266;108950;-76
2022/05/17 13:26:49;;;;;;;3.30;0.60;;;;;;;19.53;29.45;100526.48;130385;1267;108694;-74
2022/05/17 13:29:57;;;;;;;5.30;0.50;;;;;;;19.36;29.79;100527.98;130403;1267;108704;-76
2022/05/17 13:33:03;;;;;;;1.60;0.50;;;;;;;19.33;29.78;100526.42;130499;1267;108784;-75
2022/05/17 13:36:12;;;;;;;0.80;0.40;;;;;;;19.23;29.98;100524.73;130430;1267;108876;-76
2022/05/17 13:39:28;;;;;;;2.20;0.50;;;;;;;19.16;29.77;100526.54;130418;1266;108694;-75
2022/05/17 13:42:47;;;;;;;4.80;0.50;;;;;;;19.12;30.29;100525.98;130423;1267;108876;-75
2022/05/17 13:46:12;;;;;;;1.60;0.50;;;;;;;19.02;30.11;100529.90;130396;1267;107639;-74
2022/05/17 13:49:28;;;;;;;1.40;0.60;;;;;;;18.99;30.26;100527.77;130478;1267;108756;-74
2022/05/17 13:52:39;;;;;;;0.90;0.50;;;;;;;18.98;30.55;100533.55;130451;1267;108933;-76
2022/05/17 13:55:47;;;;;;;1.20;0.60;;;;;;;18.80;30.04;100530.84;130193;1268;108768;-77
2022/05/17 13:58:54;;;;;;;2.20;0.50;;;;;;;18.70;30.48;100528.17;130470;1267;108715;-77
2022/05/17 14:02:02;;;;;;;0.80;0.40;;;;;;;18.63;30.51;100534.17;130607;1267;108762;-76
2022/05/17 14:05:17;;;;;;;1.50;0.30;;;;;;;18.54;30.21;100529.86;130519;1267;108904;-77
2022/05/17 14:11:55;;;;;;;0.90;0.50;;;;;;;18.49;30.33;100523.73;130402;1270;108816;-77
2022/05/17 14:15:01;;;;;;;0.90;0.50;;;;;;;18.56;30.39;100533.05;130236;1268;108810;-76
2022/05/17 14:18:11;;;;;;;3.10;0.60;;;;;;;18.50;30.09;100528.94;130322;1266;108713;-74
2022/05/17 14:21:16;;;;;;;2.60;0.60;;;;;;;18.47;30.39;100529.13;130527;1267;108639;-75
2022/05/17 14:24:22;;;;;;;1.90;0.50;;;;;;;18.39;30.21;100522.17;130512;1265;108588;-74
2022/05/17 14:27:27;;;;;;;1.90;0.50;;;;;;;18.43;30.70;100518.49;130532;1266;109052;-77
2022/05/17 14:30:36;;;;;;;2.00;0.50;;;;;;;18.43;30.64;100520.24;130598;1266;109592;-76
2022/05/17 14:33:42;;;;;;;2.30;0.60;;;;;;;18.43;30.72;100525.11;130209;1269;108966;-76
2022/05/17 14:36:48;;;;;;;3.50;0.50;;;;;;;18.35;30.73;100525.23;130540;1266;108729;-76
2022/05/17 14:39:55;;;;;;;1.20;0.40;;;;;;;18.27;30.87;100532.89;130618;1267;108929;-76
2022/05/17 14:43:01;;;;;;;1.10;0.60;;;;;;;18.20;30.84;100531.23;130445;1267;108754;-76
2022/05/17 14:46:07;;;;;;;3.00;0.70;;;;;;;18.19;31.27;100537.95;130472;1267;108836;-76